createdAt,value
2023-04-07T00:01:00.403Z,94333.13
2023-04-07T00:03:02.616Z,94340.63
2023-04-07T00:05:04.497Z,94335.44
2023-04-07T00:07:06.134Z,94330.84
2023-04-07T00:09:07.623Z,94334.81
2023-04-07T00:11:09.089Z,94334.53
2023-04-07T00:13:10.568Z,94335.63
2023-04-07T00:15:12.131Z,94334.69
2023-04-07T00:17:13.598Z,94336.13
2023-04-07T00:19:15.042Z,94323.72
2023-04-07T00:21:16.515Z,94336.00
2023-04-07T00:23:18.034Z,94327.50
2023-04-07T00:25:19.485Z,94329.09
2023-04-07T00:27:21.137Z,94326.13
2023-04-07T00:29:22.610Z,94324.34
2023-04-07T00:31:24.103Z,94325.63
2023-04-07T00:33:26.099Z,94320.94
2023-04-07T00:35:27.694Z,94326.06
2023-04-07T00:37:29.267Z,94327.56
2023-04-07T00:39:31.507Z,94327.31
2023-04-07T00:41:34.255Z,94329.22
2023-04-07T00:43:35.744Z,94326.81
2023-04-07T00:45:37.883Z,94334.84
2023-04-07T00:47:39.401Z,94326.88
2023-04-07T00:49:41.016Z,94325.50
2023-04-07T00:51:42.457Z,94327.13
2023-04-07T00:53:44.030Z,94325.75
2023-04-07T00:55:45.854Z,94322.91
2023-04-07T00:57:47.299Z,94325.50
2023-04-07T00:59:49.797Z,94323.72
2023-04-07T01:01:55.511Z,94321.69
2023-04-07T01:04:07.591Z,94329.72
2023-04-07T01:06:09.158Z,94319.78
2023-04-07T01:08:15.642Z,94324.75
2023-04-07T01:10:25.442Z,94319.59
2023-04-07T01:12:42.224Z,94311.97
2023-04-07T01:14:47.458Z,94318.78
2023-04-07T01:16:53.791Z,94318.28
2023-04-07T01:18:58.000Z,94313.03
2023-04-07T01:21:02.045Z,94318.53
2023-04-07T01:23:04.685Z,94317.16
2023-04-07T01:25:24.969Z,94312.38
2023-04-07T01:27:29.290Z,94309.41
2023-04-07T01:29:41.518Z,94310.78
2023-04-07T01:31:43.225Z,94308.16
2023-04-07T01:33:46.248Z,94309.09
2023-04-07T01:35:48.276Z,94314.41
2023-04-07T01:37:50.694Z,94306.38
2023-04-07T01:39:52.143Z,94302.41
2023-04-07T01:41:53.747Z,94310.44
2023-04-07T01:43:55.918Z,94308.00
2023-04-07T01:45:57.635Z,94311.69
2023-04-07T01:47:59.344Z,94302.72
2023-04-07T01:50:01.521Z,94307.63
2023-04-07T01:52:03.023Z,94311.69
2023-04-07T01:54:04.620Z,94309.69
2023-04-07T01:56:06.331Z,94305.00
2023-04-07T01:58:07.809Z,94306.50
2023-04-07T02:00:09.431Z,94300.00
2023-04-07T02:02:10.985Z,94294.13
2023-04-07T02:04:13.304Z,94293.03
2023-04-07T02:06:20.729Z,94289.75
2023-04-07T02:08:22.246Z,94288.94
2023-04-07T02:10:24.304Z,94287.84
2023-04-07T02:12:26.740Z,94288.53
2023-04-07T02:14:28.301Z,94294.84
2023-04-07T02:16:32.851Z,94290.22
2023-04-07T02:18:34.379Z,94284.34
2023-04-07T02:20:35.855Z,94284.94
2023-04-07T02:22:37.891Z,94291.31
2023-04-07T02:24:41.688Z,94294.59
2023-04-07T02:26:43.335Z,94298.25
2023-04-07T02:28:44.829Z,94292.94
2023-04-07T02:30:46.325Z,94305.03
2023-04-07T02:32:47.932Z,94287.97
2023-04-07T02:34:49.487Z,94294.31
2023-04-07T02:36:51.178Z,94292.81
2023-04-07T02:38:52.688Z,94303.75
2023-04-07T02:40:54.271Z,94306.34
2023-04-07T02:42:55.745Z,94309.00
2023-04-07T02:44:57.316Z,94303.28
2023-04-07T02:46:58.808Z,94300.31
2023-04-07T02:49:00.266Z,94297.88
2023-04-07T02:51:01.739Z,94293.06
2023-04-07T02:53:03.235Z,94298.88
2023-04-07T02:55:04.838Z,94292.19
2023-04-07T02:57:06.314Z,94309.09
2023-04-07T02:59:07.864Z,94305.38
2023-04-07T03:01:09.492Z,94311.56
2023-04-07T03:03:11.082Z,94309.16
2023-04-07T03:05:12.711Z,94302.09
2023-04-07T03:07:14.207Z,94310.06
2023-04-07T03:09:15.723Z,94303.09
2023-04-07T03:11:17.226Z,94299.28
2023-04-07T03:13:19.783Z,94306.09
2023-04-07T03:15:21.551Z,94319.63
2023-04-07T03:17:23.070Z,94302.41
2023-04-07T03:19:24.660Z,94304.06
2023-04-07T03:21:26.161Z,94303.16
2023-04-07T03:23:29.403Z,94306.44
2023-04-07T03:25:31.374Z,94297.00
2023-04-07T03:27:32.833Z,94300.38
2023-04-07T03:29:34.299Z,94310.75
2023-04-07T03:31:37.738Z,94295.44
2023-04-07T03:33:39.291Z,94302.84
2023-04-07T03:35:41.277Z,94303.38
2023-04-07T03:37:42.950Z,94301.31
2023-04-07T03:39:44.422Z,94301.31
2023-04-07T03:41:45.906Z,94296.00
2023-04-07T03:43:47.485Z,94302.28
2023-04-07T03:45:48.980Z,94303.91
2023-04-07T03:47:50.619Z,94305.97
2023-04-07T03:49:52.178Z,94306.78
2023-04-07T03:51:53.733Z,94306.13
2023-04-07T03:53:55.393Z,94304.66
2023-04-07T03:55:56.894Z,94305.34
2023-04-07T03:57:58.402Z,94299.06
2023-04-07T03:59:59.947Z,94304.19
2023-04-07T04:02:01.964Z,94320.03
2023-04-07T04:04:03.714Z,94313.59
2023-04-07T04:06:05.927Z,94313.44
2023-04-07T04:08:07.533Z,94315.25
2023-04-07T04:10:09.371Z,94301.47
2023-04-07T04:12:10.858Z,94303.78
2023-04-07T04:14:12.560Z,94319.63
2023-04-07T04:16:15.222Z,94312.91
2023-04-07T04:18:16.936Z,94316.34
2023-04-07T04:20:18.575Z,94317.16
2023-04-07T04:22:20.045Z,94313.38
2023-04-07T04:24:21.642Z,94315.44
2023-04-07T04:26:26.195Z,94324.31
2023-04-07T04:28:27.763Z,94317.50
2023-04-07T04:30:29.257Z,94324.22
2023-04-07T04:32:30.820Z,94320.97
2023-04-07T04:34:32.652Z,94322.34
2023-04-07T04:36:34.417Z,94319.03
2023-04-07T04:38:36.949Z,94330.78
2023-04-07T04:40:38.445Z,94335.97
2023-04-07T04:42:40.024Z,94324.22
2023-04-07T04:44:41.522Z,94340.16
2023-04-07T04:46:43.123Z,94331.88
2023-04-07T04:48:44.670Z,94326.41
2023-04-07T04:50:46.191Z,94333.53
2023-04-07T04:52:47.721Z,94331.63
2023-04-07T04:54:49.321Z,94332.03
2023-04-07T04:56:51.210Z,94338.38
2023-04-07T04:58:52.740Z,94345.28
2023-04-07T05:00:58.330Z,94339.81
2023-04-07T05:03:00.326Z,94352.97
2023-04-07T05:05:02.318Z,94341.22
2023-04-07T05:07:04.202Z,94349.56
2023-04-07T05:09:05.971Z,94351.88
2023-04-07T05:11:07.474Z,94351.59
2023-04-07T05:13:08.912Z,94352.56
2023-04-07T05:15:10.676Z,94366.06
2023-04-07T05:17:12.158Z,94359.53
2023-04-07T05:19:13.738Z,94360.38
2023-04-07T05:21:15.462Z,94364.38
2023-04-07T05:23:16.939Z,94369.69
2023-04-07T05:25:18.413Z,94365.34
2023-04-07T05:27:19.964Z,94362.53
2023-04-07T05:29:21.449Z,94370.09
2023-04-07T05:31:23.024Z,94367.78
2023-04-07T05:33:24.530Z,94373.88
2023-04-07T05:35:26.033Z,94374.78
2023-04-07T05:37:27.581Z,94375.47
2023-04-07T05:39:29.086Z,94367.19
2023-04-07T05:41:30.614Z,94369.38
2023-04-07T05:43:32.119Z,94369.97
2023-04-07T05:45:33.684Z,94367.69
2023-04-07T05:47:35.457Z,94372.25
2023-04-07T05:49:37.084Z,94374.59
2023-04-07T05:51:38.559Z,94371.63
2023-04-07T05:53:40.170Z,94367.00
2023-04-07T05:55:44.471Z,94365.22
2023-04-07T05:57:46.211Z,94370.81
2023-04-07T05:59:47.704Z,94367.84
2023-04-07T06:01:49.375Z,94362.91
2023-04-07T06:03:51.071Z,94364.28
2023-04-07T06:05:52.733Z,94364.53
2023-04-07T06:07:54.569Z,94362.63
2023-04-07T06:09:56.108Z,94361.53
2023-04-07T06:11:57.778Z,94363.44
2023-04-07T06:13:59.274Z,94368.34
2023-04-07T06:16:01.109Z,94362.31
2023-04-07T06:18:02.659Z,94359.59
2023-04-07T06:20:04.404Z,94369.44
2023-04-07T06:22:05.910Z,94361.47
2023-04-07T06:24:07.515Z,94370.63
2023-04-07T06:26:12.323Z,94368.56
2023-04-07T06:28:13.883Z,94362.28
2023-04-07T06:30:15.750Z,94363.06
2023-04-07T06:32:17.251Z,94359.19
2023-04-07T06:34:18.805Z,94357.47
2023-04-07T06:36:21.224Z,94357.53
2023-04-07T06:38:22.840Z,94349.09
2023-04-07T06:40:24.349Z,94357.34
2023-04-07T06:42:25.832Z,94353.84
2023-04-07T06:44:27.364Z,94352.28
2023-04-07T06:46:29.214Z,94362.44
2023-04-07T06:48:30.893Z,94358.63
2023-04-07T06:50:32.318Z,94361.53
2023-04-07T06:52:33.822Z,94363.03
2023-04-07T06:54:35.415Z,94375.50
2023-04-07T06:56:37.082Z,94371.03
2023-04-07T06:58:38.778Z,94363.91
2023-04-07T07:00:40.567Z,94370.03
2023-04-07T07:02:42.131Z,94365.56
2023-04-07T07:04:43.674Z,94367.06
2023-04-07T07:06:45.310Z,94366.06
2023-04-07T07:08:46.863Z,94370.56
2023-04-07T07:10:48.437Z,94372.19
2023-04-07T07:12:51.206Z,94378.03
2023-04-07T07:14:52.747Z,94378.16
2023-04-07T07:16:54.204Z,94374.81
2023-04-07T07:18:55.663Z,94381.72
2023-04-07T07:20:57.111Z,94379.56
2023-04-07T07:22:59.860Z,94377.19
2023-04-07T07:25:01.485Z,94384.53
2023-04-07T07:27:03.578Z,94387.59
2023-04-07T07:29:05.081Z,94390.41
2023-04-07T07:31:10.554Z,94386.25
2023-04-07T07:33:12.227Z,94393.94
2023-04-07T07:35:13.705Z,94390.88
2023-04-07T07:37:16.071Z,94396.00
2023-04-07T07:39:17.614Z,94392.09
2023-04-07T07:41:19.138Z,94392.09
2023-04-07T07:43:20.658Z,94392.69
2023-04-07T07:45:22.362Z,94412.19
2023-04-07T07:47:24.020Z,94401.16
2023-04-07T07:49:25.572Z,94406.38
2023-04-07T07:51:28.101Z,94398.47
2023-04-07T07:53:29.570Z,94403.41
2023-04-07T07:55:31.278Z,94413.16
2023-04-07T07:57:32.859Z,94398.66
2023-04-07T07:59:34.350Z,94390.97
2023-04-07T08:01:36.026Z,94399.28
2023-04-07T08:03:38.248Z,94398.25
2023-04-07T08:05:40.010Z,94398.69
2023-04-07T08:07:43.159Z,94396.41
2023-04-07T08:09:44.735Z,94404.09
2023-04-07T08:11:48.366Z,94404.22
2023-04-07T08:13:50.134Z,94404.63
2023-04-07T08:15:51.909Z,94399.31
2023-04-07T08:17:54.820Z,94405.56
2023-04-07T08:19:57.735Z,94402.63
2023-04-07T08:21:59.293Z,94407.75
2023-04-07T08:24:01.123Z,94402.94
2023-04-07T08:26:02.618Z,94409.72
2023-04-07T08:28:04.248Z,94410.22
2023-04-07T08:30:09.209Z,94397.09
2023-04-07T08:32:10.924Z,94406.91
2023-04-07T08:34:13.717Z,94409.41
2023-04-07T08:36:15.262Z,94410.75
2023-04-07T08:38:17.732Z,94401.91
2023-04-07T08:40:19.255Z,94392.81
2023-04-07T08:42:20.981Z,94399.44
2023-04-07T08:44:22.777Z,94394.78
2023-04-07T08:46:24.389Z,94406.06
2023-04-07T08:48:27.256Z,94408.66
2023-04-07T08:50:28.788Z,94399.84
2023-04-07T08:52:39.038Z,94398.22
2023-04-07T08:54:40.827Z,94391.34
2023-04-07T08:56:42.929Z,94402.06
2023-04-07T08:58:44.810Z,94402.59
2023-04-07T09:00:46.865Z,94408.44
2023-04-07T09:02:49.579Z,94405.06
2023-04-07T09:04:51.947Z,94402.06
2023-04-07T09:06:53.392Z,94401.41
2023-04-07T09:08:55.409Z,94404.72
2023-04-07T09:10:57.166Z,94396.50
2023-04-07T09:12:59.601Z,94404.06
2023-04-07T09:15:01.216Z,94401.38
2023-04-07T09:17:02.752Z,94394.94
2023-04-07T09:19:04.226Z,94403.59
2023-04-07T09:21:06.076Z,94398.31
2023-04-07T09:23:07.598Z,94400.97
2023-04-07T09:25:11.976Z,94410.47
2023-04-07T09:27:17.021Z,94389.91
2023-04-07T09:29:22.501Z,94402.25
2023-04-07T09:31:26.464Z,94408.06
2023-04-07T09:33:28.309Z,94410.19
2023-04-07T09:35:30.044Z,94412.97
2023-04-07T09:37:31.719Z,94415.91
2023-04-07T09:39:33.336Z,94422.03
2023-04-07T09:41:34.955Z,94418.19
2023-04-07T09:43:38.285Z,94420.25
2023-04-07T09:45:39.776Z,94411.41
2023-04-07T09:47:41.273Z,94414.66
2023-04-07T09:49:55.141Z,94418.47
2023-04-07T09:51:57.639Z,94424.09
2023-04-07T09:53:59.251Z,94412.78
2023-04-07T09:56:01.049Z,94423.78
2023-04-07T09:58:02.654Z,94430.69
2023-04-07T10:00:04.384Z,94430.88
2023-04-07T10:02:06.546Z,94425.44
2023-04-07T10:04:08.211Z,94430.00
2023-04-07T10:06:10.451Z,94408.50
2023-04-07T10:08:12.261Z,94416.38
2023-04-07T10:10:13.868Z,94417.34
2023-04-07T10:12:15.506Z,94429.91
2023-04-07T10:14:17.052Z,94415.09
2023-04-07T10:16:18.549Z,94417.34
2023-04-07T10:18:20.834Z,94414.50
2023-04-07T10:20:22.287Z,94413.97
2023-04-07T10:22:24.335Z,94410.84
2023-04-07T10:24:31.987Z,94422.16
2023-04-07T10:26:33.783Z,94422.59
2023-04-07T10:28:35.745Z,94416.50
2023-04-07T10:30:37.711Z,94414.44
2023-04-07T10:32:49.170Z,94420.75
2023-04-07T10:34:50.648Z,94416.59
2023-04-07T10:37:11.094Z,94420.09
2023-04-07T10:39:12.606Z,94432.78
2023-04-07T10:41:34.418Z,94423.66
2023-04-07T10:43:44.212Z,94446.03
2023-04-07T10:45:48.935Z,94449.38
2023-04-07T10:48:02.994Z,94441.19
2023-04-07T10:50:20.723Z,94445.81
2023-04-07T10:52:23.257Z,94449.94
2023-04-07T10:54:29.084Z,94442.38
2023-04-07T10:56:51.023Z,94443.06
2023-04-07T10:59:12.844Z,94451.25
2023-04-07T11:01:14.373Z,94440.16
2023-04-07T11:03:16.127Z,94438.00
2023-04-07T11:05:21.700Z,94432.34
2023-04-07T11:07:43.046Z,94443.75
2023-04-07T11:09:44.830Z,94442.78
2023-04-07T11:11:48.750Z,94454.47
2023-04-07T11:13:51.080Z,94440.84
2023-04-07T11:15:52.939Z,94434.94
2023-04-07T11:18:10.582Z,94451.19
2023-04-07T11:20:12.152Z,94439.28
2023-04-07T11:22:28.722Z,94442.69
2023-04-07T11:24:40.558Z,94442.50
2023-04-07T11:26:42.140Z,94443.44
2023-04-07T11:28:49.603Z,94442.16
2023-04-07T11:30:52.876Z,94442.19
2023-04-07T11:32:54.774Z,94440.72
2023-04-07T11:34:56.306Z,94454.41
2023-04-07T11:36:59.834Z,94453.16
2023-04-07T11:39:02.264Z,94461.41
2023-04-07T11:41:14.918Z,94455.97
2023-04-07T11:43:20.439Z,94460.72
2023-04-07T11:45:22.131Z,94452.88
2023-04-07T11:47:33.513Z,94456.81
2023-04-07T11:49:34.974Z,94446.94
2023-04-07T11:51:36.465Z,94450.31
2023-04-07T11:53:41.217Z,94451.81
2023-04-07T11:55:42.716Z,94450.47
2023-04-07T11:57:44.458Z,94457.44
2023-04-07T11:59:45.921Z,94451.00
2023-04-07T12:01:48.425Z,94449.19
2023-04-07T12:04:03.283Z,94432.44
2023-04-07T12:06:05.253Z,94436.31
2023-04-07T12:08:06.818Z,94449.25
2023-04-07T12:10:21.116Z,94446.63
2023-04-07T12:12:29.110Z,94452.53
2023-04-07T12:14:30.667Z,94443.09
2023-04-07T12:16:32.268Z,94459.53
2023-04-07T12:18:33.879Z,94450.72
2023-04-07T12:20:37.506Z,94441.84
2023-04-07T12:22:39.289Z,94446.13
2023-04-07T12:24:40.862Z,94439.72
2023-04-07T12:26:42.372Z,94443.47
2023-04-07T12:28:44.237Z,94446.06
2023-04-07T12:30:45.725Z,94451.50
2023-04-07T12:32:47.590Z,94439.47
2023-04-07T12:34:49.138Z,94454.34
2023-04-07T12:36:50.615Z,94450.25
2023-04-07T12:38:52.938Z,94447.31
2023-04-07T12:40:54.543Z,94452.19
2023-04-07T12:42:58.339Z,94456.38
2023-04-07T12:45:00.120Z,94455.72
2023-04-07T12:47:02.633Z,94441.72
2023-04-07T12:49:04.218Z,94440.94
2023-04-07T12:51:05.945Z,94436.91
2023-04-07T12:53:07.496Z,94444.13
2023-04-07T12:55:09.106Z,94442.56
2023-04-07T12:57:11.002Z,94441.16
2023-04-07T12:59:13.068Z,94441.34
2023-04-07T13:01:14.728Z,94449.34
2023-04-07T13:03:16.948Z,94447.91
2023-04-07T13:05:19.018Z,94463.19
2023-04-07T13:07:22.004Z,94444.81
2023-04-07T13:09:24.866Z,94461.50
2023-04-07T13:11:26.403Z,94454.47
2023-04-07T13:13:28.017Z,94461.03
2023-04-07T13:15:29.599Z,94454.66
2023-04-07T13:17:31.258Z,94461.50
2023-04-07T13:19:32.768Z,94452.75
2023-04-07T13:21:46.272Z,94467.16
2023-04-07T13:23:50.904Z,94463.53
2023-04-07T13:25:52.466Z,94463.84
2023-04-07T13:27:53.950Z,94460.75
2023-04-07T13:29:55.850Z,94465.06
2023-04-07T13:32:06.975Z,94461.44
2023-04-07T13:34:08.673Z,94464.50
2023-04-07T13:36:10.398Z,94469.53
2023-04-07T13:38:12.073Z,94477.25
2023-04-07T13:40:13.635Z,94486.28
2023-04-07T13:42:17.705Z,94477.91
2023-04-07T13:44:19.180Z,94484.94
2023-04-07T13:46:28.350Z,94487.69
2023-04-07T13:48:30.527Z,94486.00
2023-04-07T13:50:32.016Z,94487.69
2023-04-07T13:52:35.478Z,94486.78
2023-04-07T13:54:38.237Z,94492.28
2023-04-07T13:56:41.021Z,94500.28
2023-04-07T13:58:42.703Z,94500.91
2023-04-07T14:00:44.224Z,94506.41
2023-04-07T14:02:47.749Z,94510.47
2023-04-07T14:04:49.386Z,94513.97
2023-04-07T14:06:50.950Z,94509.31
2023-04-07T14:08:52.484Z,94512.63
2023-04-07T14:10:54.162Z,94514.81
2023-04-07T14:12:56.421Z,94515.22
2023-04-07T14:14:57.966Z,94515.03
2023-04-07T14:16:59.614Z,94519.34
2023-04-07T14:19:01.114Z,94523.91
2023-04-07T14:21:03.423Z,94519.00
2023-04-07T14:23:05.024Z,94531.47
2023-04-07T14:25:06.777Z,94537.41
2023-04-07T14:27:08.547Z,94524.66
2023-04-07T14:29:10.181Z,94536.03
2023-04-07T14:31:15.829Z,94531.94
2023-04-07T14:33:17.537Z,94518.81
2023-04-07T14:35:19.034Z,94523.44
2023-04-07T14:37:24.190Z,94528.09
2023-04-07T14:39:25.885Z,94520.53
2023-04-07T14:41:27.524Z,94533.56
2023-04-07T14:43:29.578Z,94530.44
2023-04-07T14:45:31.022Z,94534.81
2023-04-07T14:47:32.526Z,94548.09
2023-04-07T14:49:34.876Z,94546.84
2023-04-07T14:51:36.462Z,94545.91
2023-04-07T14:53:37.972Z,94548.66
2023-04-07T14:55:41.475Z,94548.63
2023-04-07T14:57:43.007Z,94537.03
2023-04-07T14:59:44.528Z,94552.66
2023-04-07T15:01:46.158Z,94557.53
2023-04-07T15:03:47.872Z,94553.69
2023-04-07T15:05:49.787Z,94551.25
2023-04-07T15:07:52.477Z,94561.38
2023-04-07T15:09:54.178Z,94560.41
2023-04-07T15:11:56.432Z,94561.34
2023-04-07T15:13:58.123Z,94554.63
2023-04-07T15:16:06.217Z,94561.63
2023-04-07T15:18:07.876Z,94561.97
2023-04-07T15:20:09.767Z,94559.09
2023-04-07T15:22:11.304Z,94568.59
2023-04-07T15:24:14.250Z,94561.84
2023-04-07T15:26:16.969Z,94556.06
2023-04-07T15:28:18.455Z,94573.47
2023-04-07T15:30:21.022Z,94564.63
2023-04-07T15:32:22.539Z,94568.91
2023-04-07T15:34:24.016Z,94573.00
2023-04-07T15:36:26.050Z,94573.53
2023-04-07T15:38:30.454Z,94568.56
2023-04-07T15:40:31.862Z,94577.53
2023-04-07T15:42:41.719Z,94571.44
2023-04-07T15:44:43.548Z,94571.22
2023-04-07T15:46:45.069Z,94568.84
2023-04-07T15:48:47.867Z,94565.25
2023-04-07T15:50:49.350Z,94583.41
2023-04-07T15:52:50.855Z,94573.41
2023-04-07T15:54:52.340Z,94582.13
2023-04-07T15:56:53.947Z,94582.81
2023-04-07T15:58:55.711Z,94579.59
2023-04-07T16:00:57.484Z,94574.69
2023-04-07T16:02:59.296Z,94574.22
2023-04-07T16:05:01.274Z,94570.41
2023-04-07T16:07:02.753Z,94574.69
2023-04-07T16:09:04.376Z,94572.63
2023-04-07T16:11:05.903Z,94586.03
2023-04-07T16:13:07.417Z,94591.50
2023-04-07T16:15:11.226Z,94590.28
2023-04-07T16:17:12.814Z,94596.41
2023-04-07T16:19:14.638Z,94596.03
2023-04-07T16:21:16.473Z,94605.88
2023-04-07T16:23:17.994Z,94593.28
2023-04-07T16:25:19.721Z,94601.84
2023-04-07T16:27:21.318Z,94600.50
2023-04-07T16:29:22.877Z,94604.91
2023-04-07T16:31:24.543Z,94608.16
2023-04-07T16:33:26.257Z,94614.72
2023-04-07T16:35:28.195Z,94608.44
2023-04-07T16:37:30.414Z,94605.56
2023-04-07T16:39:31.936Z,94611.19
2023-04-07T16:41:33.522Z,94618.09
2023-04-07T16:43:35.000Z,94611.78
2023-04-07T16:45:36.579Z,94609.19
2023-04-07T16:47:38.239Z,94617.22
2023-04-07T16:49:39.768Z,94621.63
2023-04-07T16:51:41.284Z,94621.47
2023-04-07T16:53:42.754Z,94624.03
2023-04-07T16:55:44.246Z,94618.88
2023-04-07T16:57:45.711Z,94616.97
2023-04-07T16:59:48.462Z,94624.09
2023-04-07T17:01:50.139Z,94618.34
2023-04-07T17:03:52.681Z,94630.06
2023-04-07T17:05:54.565Z,94637.97
2023-04-07T17:07:57.196Z,94637.63
2023-04-07T17:09:58.932Z,94639.81
2023-04-07T17:12:01.327Z,94643.69
2023-04-07T17:14:03.375Z,94648.91
2023-04-07T17:16:05.194Z,94640.66
2023-04-07T17:18:07.067Z,94645.19
2023-04-07T17:20:09.356Z,94648.78
2023-04-07T17:22:10.909Z,94646.31
2023-04-07T17:24:15.413Z,94648.38
2023-04-07T17:26:16.921Z,94645.34
2023-04-07T17:28:18.423Z,94654.78
2023-04-07T17:30:19.905Z,94651.38
2023-04-07T17:32:22.087Z,94654.94
2023-04-07T17:34:23.713Z,94648.59
2023-04-07T17:36:28.298Z,94656.38
2023-04-07T17:38:30.595Z,94656.94
2023-04-07T17:40:32.448Z,94656.50
2023-04-07T17:42:33.978Z,94664.59
2023-04-07T17:44:35.426Z,94671.97
2023-04-07T17:46:36.982Z,94664.56
2023-04-07T17:48:38.561Z,94673.09
2023-04-07T17:50:40.182Z,94671.97
2023-04-07T17:52:41.887Z,94670.84
2023-04-07T17:54:43.409Z,94678.97
2023-04-07T17:56:44.906Z,94671.84
2023-04-07T17:58:46.770Z,94682.78
2023-04-07T18:00:48.287Z,94686.22
2023-04-07T18:02:50.257Z,94683.75
2023-04-07T18:04:52.014Z,94687.31
2023-04-07T18:06:53.530Z,94691.84
2023-04-07T18:08:55.021Z,94701.97
2023-04-07T18:10:56.649Z,94696.75
2023-04-07T18:12:58.629Z,94711.31
2023-04-07T18:15:00.164Z,94699.09
2023-04-07T18:17:02.672Z,94708.72
2023-04-07T18:19:04.120Z,94704.19
2023-04-07T18:21:06.704Z,94711.34
2023-04-07T18:23:08.510Z,94714.50
2023-04-07T18:25:11.708Z,94704.59
2023-04-07T18:27:13.256Z,94713.94
2023-04-07T18:29:15.027Z,94707.88
2023-04-07T18:31:16.684Z,94702.38
2023-04-07T18:33:18.467Z,94708.97
2023-04-07T18:35:20.321Z,94711.00
2023-04-07T18:37:22.284Z,94707.84
2023-04-07T18:39:27.862Z,94716.78
2023-04-07T18:41:29.453Z,94713.50
2023-04-07T18:43:31.475Z,94718.03
2023-04-07T18:45:36.789Z,94715.44
2023-04-07T18:47:39.083Z,94716.78
2023-04-07T18:49:40.587Z,94725.13
2023-04-07T18:51:42.933Z,94723.50
2023-04-07T18:53:44.508Z,94715.25
2023-04-07T18:55:46.136Z,94717.03
2023-04-07T18:57:47.717Z,94715.38
2023-04-07T18:59:49.181Z,94724.19
2023-04-07T19:01:51.090Z,94720.06
2023-04-07T19:03:52.939Z,94713.34
2023-04-07T19:05:55.427Z,94705.50
2023-04-07T19:07:56.932Z,94709.66
2023-04-07T19:09:58.419Z,94713.34
2023-04-07T19:11:59.950Z,94711.72
2023-04-07T19:14:01.399Z,94711.72
2023-04-07T19:16:03.352Z,94710.66
2023-04-07T19:18:04.928Z,94707.63
2023-04-07T19:20:06.913Z,94710.09
2023-04-07T19:22:08.372Z,94712.97
2023-04-07T19:24:09.925Z,94713.41
2023-04-07T19:26:12.168Z,94714.25
2023-04-07T19:28:13.669Z,94709.28
2023-04-07T19:30:16.306Z,94706.28
2023-04-07T19:32:17.984Z,94702.59
2023-04-07T19:34:19.496Z,94716.59
2023-04-07T19:36:21.025Z,94706.84
2023-04-07T19:38:22.518Z,94710.13
2023-04-07T19:40:24.724Z,94712.63
2023-04-07T19:42:26.435Z,94712.63
2023-04-07T19:44:27.974Z,94706.00
2023-04-07T19:46:29.516Z,94705.72
2023-04-07T19:48:31.008Z,94710.94
2023-04-07T19:50:32.573Z,94710.78
2023-04-07T19:52:34.142Z,94719.16
2023-04-07T19:54:35.636Z,94711.88
2023-04-07T19:56:37.654Z,94708.97
2023-04-07T19:58:39.331Z,94712.69
2023-04-07T20:00:41.477Z,94713.25
2023-04-07T20:02:43.221Z,94714.88
2023-04-07T20:04:44.922Z,94720.22
2023-04-07T20:06:46.460Z,94720.22
2023-04-07T20:08:48.703Z,94718.59
2023-04-07T20:10:51.448Z,94724.13
2023-04-07T20:12:52.932Z,94717.53
2023-04-07T20:14:54.403Z,94715.31
2023-04-07T20:16:56.474Z,94713.41
2023-04-07T20:18:58.220Z,94718.78
2023-04-07T20:21:02.705Z,94729.19
2023-04-07T20:23:04.272Z,94726.31
2023-04-07T20:25:06.307Z,94724.50
2023-04-07T20:27:08.087Z,94725.47
2023-04-07T20:29:09.594Z,94733.69
2023-04-07T20:31:11.158Z,94724.75
2023-04-07T20:33:12.714Z,94724.63
2023-04-07T20:35:14.423Z,94731.09
2023-04-07T20:37:15.900Z,94732.34
2023-04-07T20:39:17.370Z,94733.31
2023-04-07T20:41:18.822Z,94735.50
2023-04-07T20:43:22.069Z,94733.81
2023-04-07T20:45:23.732Z,94733.56
2023-04-07T20:47:25.254Z,94726.56
2023-04-07T20:49:26.942Z,94730.97
2023-04-07T20:51:29.037Z,94727.38
2023-04-07T20:53:30.611Z,94727.09
2023-04-07T20:55:32.774Z,94730.09
2023-04-07T20:57:34.290Z,94740.41
2023-04-07T20:59:36.120Z,94741.75
2023-04-07T21:01:38.697Z,94745.19
2023-04-07T21:03:40.441Z,94741.63
2023-04-07T21:05:43.443Z,94740.09
2023-04-07T21:07:44.985Z,94740.25
2023-04-07T21:09:46.500Z,94731.22
2023-04-07T21:11:47.960Z,94743.44
2023-04-07T21:13:49.525Z,94736.84
2023-04-07T21:15:51.036Z,94739.47
2023-04-07T21:17:53.053Z,94735.88
2023-04-07T21:19:54.587Z,94739.16
2023-04-07T21:21:56.287Z,94737.41
2023-04-07T21:23:59.662Z,94740.00
2023-04-07T21:26:02.251Z,94732.44
2023-04-07T21:28:03.797Z,94735.56
2023-04-07T21:30:06.261Z,94742.16
2023-04-07T21:32:08.124Z,94738.44
2023-04-07T21:34:09.601Z,94731.44
2023-04-07T21:36:11.531Z,94735.97
2023-04-07T21:38:13.164Z,94733.38
2023-04-07T21:40:14.731Z,94738.28
2023-04-07T21:42:16.629Z,94732.25
2023-04-07T21:44:20.133Z,94734.19
2023-04-07T21:46:21.704Z,94731.44
2023-04-07T21:48:23.606Z,94739.09
2023-04-07T21:50:25.541Z,94739.41
2023-04-07T21:52:27.412Z,94740.34
2023-04-07T21:54:28.860Z,94737.63
2023-04-07T21:56:30.455Z,94748.47
2023-04-07T21:58:31.965Z,94745.22
2023-04-07T22:00:33.777Z,94750.44
2023-04-07T22:02:35.864Z,94742.81
2023-04-07T22:04:37.657Z,94754.59
2023-04-07T22:06:39.320Z,94749.50
2023-04-07T22:08:44.325Z,94754.31
2023-04-07T22:10:50.403Z,94750.41
2023-04-07T22:12:52.019Z,94747.91
2023-04-07T22:14:53.466Z,94745.88
2023-04-07T22:16:55.070Z,94756.38
2023-04-07T22:18:56.614Z,94756.78
2023-04-07T22:20:58.050Z,94751.38
2023-04-07T22:22:59.667Z,94756.75
2023-04-07T22:25:01.271Z,94752.22
2023-04-07T22:27:03.106Z,94750.25
2023-04-07T22:29:04.625Z,94755.84
2023-04-07T22:31:06.283Z,94755.69
2023-04-07T22:33:09.731Z,94761.44
2023-04-07T22:35:11.873Z,94760.53
2023-04-07T22:37:13.483Z,94758.97
2023-04-07T22:39:14.997Z,94755.47
2023-04-07T22:41:16.446Z,94750.53
2023-04-07T22:43:17.985Z,94749.97
2023-04-07T22:45:19.898Z,94738.06
2023-04-07T22:47:22.389Z,94746.47
2023-04-07T22:49:24.036Z,94747.09
2023-04-07T22:51:25.638Z,94746.84
2023-04-07T22:53:27.091Z,94747.41
2023-04-07T22:55:29.439Z,94751.38
2023-04-07T22:57:31.036Z,94751.25
2023-04-07T22:59:32.511Z,94746.66
2023-04-07T23:01:34.116Z,94740.75
2023-04-07T23:03:35.886Z,94739.94
2023-04-07T23:05:37.446Z,94743.91
2023-04-07T23:07:38.931Z,94740.63
2023-04-07T23:09:40.387Z,94737.63
2023-04-07T23:11:42.087Z,94742.16
2023-04-07T23:13:44.270Z,94738.44
2023-04-07T23:15:46.265Z,94729.38
2023-04-07T23:17:47.794Z,94735.97
2023-04-07T23:19:49.501Z,94726.66
2023-04-07T23:21:51.108Z,94728.00
2023-04-07T23:23:52.722Z,94723.88
2023-04-07T23:25:54.160Z,94722.78
2023-04-07T23:27:55.684Z,94723.75
2023-04-07T23:29:58.169Z,94721.84
2023-04-07T23:31:59.753Z,94715.66
2023-04-07T23:34:01.430Z,94717.03
2023-04-07T23:36:03.050Z,94715.53
2023-04-07T23:38:04.804Z,94714.56
2023-04-07T23:40:06.672Z,94709.50
2023-04-07T23:42:08.288Z,94713.75
2023-04-07T23:44:09.804Z,94711.84
2023-04-07T23:46:11.417Z,94709.50
2023-04-07T23:48:12.969Z,94704.44
2023-04-07T23:50:14.714Z,94704.72
2023-04-07T23:52:16.374Z,94707.31
2023-04-07T23:54:17.837Z,94705.25
2023-04-07T23:56:19.327Z,94706.09
2023-04-07T23:58:20.980Z,94700.19
